Time;durP1;ratioP1;P1;durP2;ratioP2;P2;SDS_P1;SDS_P2;PMS_P1;PMS_P2;Temp;Humidity;BMP_temperature;BMP_pressure;BME280_temperature;BME280_humidity;BME280_pressure;Samples;Min_cycle;Max_cycle;Signal;HPM_P1;HPM_P2
2022/03/07 00:02:15;;;;;;;95.10;50.80;;;0.10;99.90;;;;;;2602628;54;20913;31
2022/03/07 00:04:52;;;;;;;66.93;38.13;;;0.00;99.90;;;;;;2621258;46;20242;31
2022/03/07 00:07:27;;;;;;;65.87;37.33;;;0.00;99.90;;;;;;2602689;54;20022;31
2022/03/07 00:10:05;;;;;;;56.05;33.83;;;0.00;99.90;;;;;;2602518;54;20026;31
2022/03/07 00:12:41;;;;;;;70.53;34.05;;;0.00;99.90;;;;;;2602441;54;20034;31
2022/03/07 00:15:17;;;;;;;77.50;38.75;;;0.00;99.90;;;;;;2602537;54;20914;31
2022/03/07 00:17:57;;;;;;;82.18;39.13;;;0.00;99.90;;;;;;2621051;47;20037;31
2022/03/07 00:20:31;;;;;;;78.63;36.67;;;0.00;99.90;;;;;;2602623;54;20026;31
2022/03/07 00:23:11;;;;;;;129.77;52.45;;;-0.10;99.90;;;;;;2602492;54;20881;31
2022/03/07 00:25:48;;;;;;;67.68;36.85;;;-0.10;99.90;;;;;;2602583;54;20891;31
2022/03/07 00:28:26;;;;;;;58.95;34.65;;;-0.10;99.90;;;;;;2602727;54;20026;31
2022/03/07 00:31:04;;;;;;;59.40;33.63;;;-0.10;99.90;;;;;;2602737;54;20874;31
2022/03/07 00:33:41;;;;;;;50.80;29.70;;;-0.10;99.90;;;;;;2602739;54;20258;31
2022/03/07 00:36:18;;;;;;;55.83;31.95;;;-0.20;99.90;;;;;;2602376;54;20026;31
2022/03/07 00:38:56;;;;;;;54.90;31.90;;;-0.10;99.90;;;;;;2602501;54;20038;31
2022/03/07 00:41:31;;;;;;;55.20;32.40;;;-0.10;99.90;;;;;;2602764;54;20862;31
2022/03/07 00:44:07;;;;;;;;;;;-0.10;99.90;;;;;;2621179;47;20030;31
2022/03/07 00:46:52;;;;;;;42.25;26.67;;;-0.10;99.90;;;;;;2602543;54;19935;31
2022/03/07 00:49:32;;;;;;;38.45;24.75;;;-0.20;99.90;;;;;;2602627;54;20034;31
2022/03/07 00:52:07;;;;;;;44.45;27.08;;;-0.20;99.90;;;;;;2602640;54;20870;31
2022/03/07 00:54:43;;;;;;;43.37;28.90;;;-0.10;99.90;;;;;;2603099;54;20842;31
2022/03/07 00:57:19;;;;;;;43.20;25.23;;;-0.10;99.90;;;;;;2621904;46;20316;31
2022/03/07 00:59:59;;;;;;;42.20;28.52;;;-0.20;99.90;;;;;;2602688;54;20896;31
2022/03/07 01:02:39;;;;;;;37.97;24.93;;;-0.20;99.90;;;;;;2602485;54;20026;31
2022/03/07 01:05:19;;;;;;;40.30;24.38;;;-0.20;99.90;;;;;;2621765;46;20031;31
2022/03/07 01:07:55;;;;;;;39.53;25.73;;;-0.10;99.90;;;;;;2603252;54;20901;31
2022/03/07 01:10:30;;;;;;;37.00;23.65;;;-0.20;99.90;;;;;;2622066;46;20977;31
2022/03/07 01:13:06;;;;;;;42.53;24.83;;;-0.20;99.90;;;;;;2603279;54;20026;31
2022/03/07 01:15:40;;;;;;;37.75;25.60;;;-0.20;99.90;;;;;;2603273;54;21082;31
2022/03/07 01:18:18;;;;;;;36.90;24.45;;;-0.10;99.90;;;;;;2603350;54;22384;31
2022/03/07 01:20:56;;;;;;;39.53;24.87;;;-0.20;99.90;;;;;;2603214;54;20030;31
2022/03/07 01:23:31;;;;;;;36.07;22.43;;;-0.20;99.90;;;;;;2603463;54;20872;31
2022/03/07 01:26:06;;;;;;;37.58;22.92;;;-0.20;99.90;;;;;;2603160;54;20263;31
2022/03/07 01:28:42;;;;;;;34.25;22.55;;;-0.20;99.90;;;;;;2603156;54;20086;31
2022/03/07 01:31:22;;;;;;;37.75;23.83;;;-0.20;99.90;;;;;;2603221;54;20863;31
2022/03/07 01:33:56;;;;;;;32.85;21.10;;;-0.20;99.90;;;;;;2603340;54;20031;31
2022/03/07 01:36:35;;;;;;;36.17;22.00;;;-0.20;99.90;;;;;;2603191;54;20764;31
2022/03/07 01:39:10;;;;;;;34.40;21.10;;;-0.20;99.90;;;;;;2603248;54;22392;31
2022/03/07 01:41:47;;;;;;;36.80;22.90;;;-0.20;99.90;;;;;;2603099;54;20262;31
2022/03/07 01:44:27;;;;;;;38.22;22.55;;;-0.20;99.90;;;;;;2602341;54;20949;31
2022/03/07 01:47:03;;;;;;;41.00;21.83;;;-0.20;99.90;;;;;;2603155;54;20085;31
2022/03/07 01:49:40;;;;;;;37.22;22.20;;;-0.20;99.90;;;;;;2603102;54;20029;31
2022/03/07 01:52:20;;;;;;;36.20;22.57;;;-0.20;99.90;;;;;;2603066;54;20118;31
2022/03/07 01:54:59;;;;;;;34.22;20.70;;;-0.20;99.90;;;;;;2603007;54;20033;31
2022/03/07 01:57:39;;;;;;;42.70;23.25;;;-0.20;99.90;;;;;;2621476;46;20034;31
2022/03/07 02:00:18;;;;;;;35.15;21.65;;;-0.20;99.90;;;;;;2603156;54;20930;31
2022/03/07 02:02:55;;;;;;;36.72;22.08;;;-0.20;99.90;;;;;;2602718;54;20797;31
2022/03/07 02:05:45;;;;;;;33.40;21.70;;;-0.20;99.90;;;;;;2603157;54;22400;31
2022/03/07 02:08:26;;;;;;;32.63;21.70;;;-0.20;99.90;;;;;;2602806;54;20067;31
2022/03/07 02:11:12;;;;;;;35.55;21.80;;;-0.20;99.90;;;;;;2603034;54;20031;31
2022/03/07 02:13:51;;;;;;;35.78;20.98;;;-0.10;99.90;;;;;;2602993;54;20774;31
2022/03/07 02:16:26;;;;;;;;;;;-0.10;99.90;;;;;;2603199;54;20069;31
2022/03/07 02:19:04;;;;;;;32.17;20.25;;;-0.10;99.90;;;;;;2602973;54;20704;31
2022/03/07 02:21:46;;;;;;;32.10;20.60;;;-0.20;99.90;;;;;;2603173;54;20037;31
2022/03/07 02:25:00;;;;;;;29.85;19.77;;;-0.10;99.90;;;;;;2602910;54;20092;31
2022/03/07 02:27:35;;;;;;;32.78;21.05;;;-0.20;99.90;;;;;;2621810;46;20869;31
2022/03/07 02:30:14;;;;;;;31.10;20.40;;;-0.20;99.90;;;;;;2602976;54;20022;31
2022/03/07 02:32:53;;;;;;;36.30;21.77;;;-0.20;99.90;;;;;;2603274;54;20989;31
2022/03/07 02:35:30;;;;;;;32.10;20.50;;;-0.20;99.90;;;;;;2602902;54;20262;31
2022/03/07 02:38:06;;;;;;;31.77;21.43;;;-0.20;99.90;;;;;;2602993;54;20862;31
2022/03/07 02:40:46;;;;;;;34.50;21.73;;;-0.20;99.90;;;;;;2620962;46;21036;31
2022/03/07 02:43:28;;;;;;;33.90;20.20;;;-0.30;99.90;;;;;;2603035;54;20103;31
2022/03/07 02:46:05;;;;;;;32.35;20.00;;;-0.30;99.90;;;;;;2602921;54;20026;31
2022/03/07 02:48:42;;;;;;;33.90;21.35;;;-0.30;99.90;;;;;;2714416;39;21555;31
2022/03/07 02:51:19;;;;;;;35.03;21.77;;;-0.30;99.90;;;;;;2602361;54;20806;31
2022/03/07 02:53:56;;;;;;;31.57;20.17;;;-0.20;99.90;;;;;;2603144;54;20881;31
2022/03/07 02:56:33;;;;;;;31.50;20.33;;;-0.30;99.90;;;;;;2602950;54;21086;31
2022/03/07 02:59:14;;;;;;;35.00;20.97;;;-0.30;99.90;;;;;;2602901;54;21104;31
2022/03/07 03:01:52;;;;;;;30.55;20.23;;;-0.30;99.90;;;;;;2602871;54;20269;31
2022/03/07 03:04:27;;;;;;;32.90;21.05;;;-0.40;99.90;;;;;;2602791;54;20022;31
2022/03/07 03:07:03;;;;;;;34.30;20.25;;;-0.30;99.90;;;;;;2602993;54;20026;31
2022/03/07 03:09:41;;;;;;;26.17;18.63;;;-0.30;99.90;;;;;;2602839;54;20030;31
2022/03/07 03:12:15;;;;;;;36.17;20.53;;;-0.30;99.90;;;;;;2603002;54;21925;31
2022/03/07 03:14:58;;;;;;;38.25;20.75;;;-0.30;99.90;;;;;;2602719;54;20310;31
2022/03/07 03:17:34;;;;;;;31.90;20.05;;;-0.30;99.90;;;;;;2602826;54;20110;31
2022/03/07 03:20:11;;;;;;;34.03;20.02;;;-0.40;99.90;;;;;;2621087;46;20882;31
2022/03/07 03:22:47;;;;;;;33.80;21.02;;;-0.30;99.90;;;;;;2602815;54;20612;31
2022/03/07 03:25:23;;;;;;;35.60;20.80;;;-0.40;99.90;;;;;;2602973;54;20750;31
2022/03/07 03:28:01;;;;;;;35.65;21.65;;;-0.30;99.90;;;;;;2621391;46;20030;31
2022/03/07 03:30:42;;;;;;;31.55;20.58;;;-0.30;99.90;;;;;;2602074;54;20045;31
2022/03/07 03:33:21;;;;;;;30.15;20.10;;;-0.30;99.90;;;;;;2602221;54;21847;31
2022/03/07 03:35:58;;;;;;;37.15;21.42;;;-0.30;99.90;;;;;;2621254;46;20030;31
2022/03/07 03:38:34;;;;;;;33.05;20.50;;;-0.30;99.90;;;;;;2602928;54;20724;31
2022/03/07 03:41:09;;;;;;;33.07;20.67;;;-0.30;99.90;;;;;;2602796;54;22393;31
2022/03/07 03:43:44;;;;;;;37.20;22.17;;;-0.30;99.90;;;;;;2602896;54;20073;31
2022/03/07 03:46:23;;;;;;;32.73;20.73;;;-0.40;99.90;;;;;;2602681;54;20037;31
2022/03/07 03:49:03;;;;;;;41.60;25.13;;;-0.30;99.90;;;;;;2601857;54;20405;31
2022/03/07 03:51:42;;;;;;;34.37;21.13;;;-0.30;99.90;;;;;;2602682;54;20591;31
2022/03/07 03:54:24;;;;;;;33.95;22.42;;;-0.30;99.90;;;;;;2602767;54;20027;31
2022/03/07 03:57:00;;;;;;;34.05;20.23;;;-0.40;99.90;;;;;;2602383;54;20886;31
2022/03/07 03:59:38;;;;;;;;;;;-0.40;99.90;;;;;;2603037;54;20045;31
2022/03/07 04:02:17;;;;;;;42.17;23.23;;;-0.40;99.90;;;;;;2602566;54;19934;31
2022/03/07 04:04:53;;;;;;;36.78;21.08;;;-0.40;99.90;;;;;;2602834;54;20853;31
2022/03/07 04:07:30;;;;;;;43.58;23.63;;;-0.40;99.90;;;;;;2602807;54;20774;31
2022/03/07 04:10:06;;;;;;;33.05;21.73;;;-0.40;99.90;;;;;;2602533;54;20809;31
2022/03/07 04:12:43;;;;;;;30.00;19.65;;;-0.40;99.90;;;;;;2602515;54;20089;31
2022/03/07 04:15:20;;;;;;;37.45;22.52;;;-0.30;99.90;;;;;;2621152;47;20027;31
2022/03/07 04:18:01;;;;;;;41.95;25.10;;;-0.40;99.90;;;;;;2602523;54;20028;31
2022/03/07 04:20:35;;;;;;;33.67;20.47;;;-0.40;99.90;;;;;;2701362;39;22271;31
2022/03/07 04:23:11;;;;;;;39.17;25.25;;;-0.40;99.90;;;;;;2621012;47;20053;31
2022/03/07 04:25:49;;;;;;;45.05;27.80;;;-0.40;99.90;;;;;;2701118;39;22337;31
2022/03/07 04:28:24;;;;;;;75.85;37.30;;;-0.50;99.90;;;;;;2603514;54;20058;31
2022/03/07 04:30:57;;;;;;;63.45;28.40;;;-0.50;99.90;;;;;;2603444;54;21103;31
2022/03/07 04:33:38;;;;;;;39.17;23.45;;;-0.40;99.90;;;;;;2603344;54;20049;31
2022/03/07 04:36:13;;;;;;;36.10;22.90;;;-0.40;99.90;;;;;;2603420;54;20952;31
2022/03/07 04:38:51;;;;;;;33.67;20.83;;;-0.50;99.90;;;;;;2603135;54;20999;31
2022/03/07 04:41:29;;;;;;;34.97;21.73;;;-0.50;99.90;;;;;;2603339;54;20856;31
2022/03/07 04:44:05;;;;;;;30.60;16.85;;;-0.50;99.90;;;;;;2621555;46;20026;31
2022/03/07 04:46:43;;;;;;;31.13;16.73;;;-0.50;99.90;;;;;;2603278;54;20030;31
2022/03/07 04:49:22;;;;;;;31.15;18.05;;;-0.50;99.90;;;;;;2603536;54;20030;31
2022/03/07 04:51:58;;;;;;;51.92;24.15;;;-0.50;99.90;;;;;;2621940;46;20036;31
2022/03/07 04:54:41;;;;;;;148.90;64.30;;;-0.50;99.90;;;;;;2603482;54;20092;31
2022/03/07 04:57:17;;;;;;;38.92;21.13;;;-0.50;99.90;;;;;;2603273;54;20081;31
2022/03/07 04:59:52;;;;;;;46.00;23.13;;;-0.50;99.90;;;;;;2603518;54;20089;31
2022/03/07 05:02:27;;;;;;;37.10;20.40;;;-0.50;99.90;;;;;;2603118;54;20026;31
2022/03/07 05:05:07;;;;;;;42.70;23.85;;;-0.40;99.90;;;;;;2603446;54;20947;31
2022/03/07 05:07:43;;;;;;;28.05;15.90;;;-0.50;99.90;;;;;;2603249;54;20135;31
2022/03/07 05:10:19;;;;;;;26.10;16.17;;;-0.50;99.90;;;;;;2603431;54;20056;31
2022/03/07 05:12:54;;;;;;;29.40;16.20;;;-0.60;99.90;;;;;;2621909;46;20792;31
2022/03/07 05:15:30;;;;;;;28.48;17.30;;;-0.50;99.90;;;;;;2602508;54;20320;31
2022/03/07 05:18:06;;;;;;;25.50;14.10;;;-0.50;99.90;;;;;;2603216;54;20093;31
2022/03/07 05:20:46;;;;;;;27.40;14.68;;;-0.50;99.90;;;;;;2603496;54;20798;31
2022/03/07 05:23:32;;;;;;;25.83;14.98;;;-0.50;99.90;;;;;;2621526;46;20947;31
2022/03/07 05:26:08;;;;;;;23.30;13.13;;;-0.50;99.90;;;;;;2621507;46;22398;31
2022/03/07 05:28:46;;;;;;;21.55;14.27;;;-0.40;99.90;;;;;;2603095;54;20090;31
2022/03/07 05:31:20;;;;;;;26.45;13.45;;;-0.50;99.90;;;;;;2621799;46;20034;31
2022/03/07 05:33:55;;;;;;;25.80;15.45;;;-0.40;99.90;;;;;;2621414;46;20037;31
2022/03/07 05:36:36;;;;;;;25.40;15.45;;;-0.40;99.90;;;;;;2603288;54;20042;31
2022/03/07 05:39:19;;;;;;;21.50;13.82;;;-0.40;99.90;;;;;;2602965;54;20921;31
2022/03/07 05:41:54;;;;;;;23.23;14.30;;;-0.40;99.90;;;;;;2603323;54;20866;31
2022/03/07 05:44:30;;;;;;;21.98;13.18;;;-0.50;99.90;;;;;;2602415;54;20230;31
2022/03/07 05:47:08;;;;;;;23.27;13.13;;;-0.40;99.90;;;;;;2603022;54;20077;31
2022/03/07 05:49:43;;;;;;;22.85;12.85;;;-0.40;99.90;;;;;;2602866;54;20033;31
2022/03/07 05:52:20;;;;;;;18.67;12.43;;;-0.30;99.90;;;;;;2603128;54;22368;31
2022/03/07 05:54:55;;;;;;;18.50;11.52;;;-0.40;99.90;;;;;;2602246;54;20777;31
2022/03/07 05:57:34;;;;;;;21.58;11.90;;;-0.40;99.90;;;;;;2701784;39;21012;31
2022/03/07 06:02:49;;;;;;;20.50;12.65;;;-0.30;99.90;;;;;;2603096;54;20543;31
2022/03/07 06:05:24;;;;;;;21.25;12.65;;;-0.20;99.90;;;;;;2621431;46;22538;31
2022/03/07 06:08:05;;;;;;;21.10;13.20;;;-0.20;99.90;;;;;;2603104;54;20026;31
2022/03/07 06:10:39;;;;;;;20.27;13.65;;;-0.30;99.90;;;;;;2603273;54;20026;31
2022/03/07 06:13:21;;;;;;;20.65;12.30;;;-0.20;99.90;;;;;;2621626;46;20030;31
2022/03/07 06:16:00;;;;;;;19.45;11.00;;;-0.20;99.90;;;;;;2603191;54;20792;31
2022/03/07 06:18:37;;;;;;;24.33;10.90;;;-0.10;99.90;;;;;;2603116;54;20026;31
2022/03/07 06:21:15;;;;;;;23.67;11.90;;;-0.10;99.90;;;;;;2602211;54;20963;31
2022/03/07 06:23:56;;;;;;;18.70;11.30;;;0.00;99.90;;;;;;2603254;54;20846;31
2022/03/07 06:26:35;;;;;;;17.77;11.30;;;0.00;99.90;;;;;;2603242;54;20881;31
2022/03/07 06:29:13;;;;;;;18.60;11.63;;;0.00;99.90;;;;;;2603113;54;20285;31
2022/03/07 06:34:25;;;;;;;17.30;9.95;;;0.20;99.90;;;;;;2602319;54;20030;31
2022/03/07 06:37:01;;;;;;;16.30;9.90;;;0.40;99.90;;;;;;2602740;54;20063;31
2022/03/07 06:39:42;;;;;;;19.92;10.98;;;0.80;99.90;;;;;;2602964;54;21204;31
2022/03/07 06:42:18;;;;;;;19.17;11.38;;;0.90;99.90;;;;;;2602841;54;20030;31
2022/03/07 06:44:58;;;;;;;24.50;11.45;;;1.50;99.90;;;;;;2621593;46;20030;31
2022/03/07 06:47:35;;;;;;;19.58;10.93;;;1.80;99.90;;;;;;2603207;54;20775;31
2022/03/07 06:50:12;;;;;;;17.65;10.25;;;2.10;99.90;;;;;;2603152;54;20103;31
2022/03/07 06:52:52;;;;;;;20.27;10.80;;;2.50;99.90;;;;;;2603034;54;20037;31
2022/03/07 06:55:30;;;;;;;20.85;10.30;;;3.10;99.90;;;;;;2603178;54;21167;31
2022/03/07 06:58:09;;;;;;;17.23;9.68;;;3.80;99.90;;;;;;2601951;54;20932;31
2022/03/07 07:00:51;;;;;;;19.60;9.32;;;4.40;99.90;;;;;;2601998;54;20026;31
2022/03/07 07:03:28;;;;;;;15.40;10.20;;;4.30;99.90;;;;;;2602683;54;20868;31
2022/03/07 07:06:08;;;;;;;16.48;9.32;;;4.20;99.90;;;;;;2602841;54;20919;31
2022/03/07 07:08:46;;;;;;;21.02;10.02;;;3.90;99.90;;;;;;2602771;54;20077;31
2022/03/07 07:11:24;;;;;;;18.45;11.15;;;3.60;99.90;;;;;;2603013;54;20785;31
2022/03/07 07:14:02;;;;;;;17.08;9.48;;;3.40;99.90;;;;;;2601940;54;20027;31
2022/03/07 07:16:37;;;;;;;15.45;9.30;;;3.10;99.90;;;;;;2602168;54;20034;31
2022/03/07 07:19:16;;;;;;;18.13;9.77;;;3.00;99.90;;;;;;2602673;54;20079;31
2022/03/07 07:24:30;;;;;;;16.25;8.43;;;3.30;99.90;;;;;;2602738;54;20253;31
2022/03/07 07:27:09;;;;;;;14.50;9.40;;;3.80;99.90;;;;;;2621551;46;20851;31
2022/03/07 07:29:47;;;;;;;15.27;8.57;;;4.30;99.90;;;;;;2602940;54;20886;31
2022/03/07 07:32:22;;;;;;;14.98;9.27;;;4.80;99.90;;;;;;2620946;46;21336;31
2022/03/07 07:35:00;;;;;;;18.55;10.10;;;5.40;99.90;;;;;;2602884;54;20038;31
2022/03/07 07:37:35;;;;;;;13.95;8.50;;;5.70;99.90;;;;;;2602955;54;20884;31
2022/03/07 07:40:17;;;;;;;14.50;8.15;;;6.10;99.90;;;;;;2602704;54;20027;31
2022/03/07 07:43:00;;;;;;;13.13;8.18;;;6.50;99.90;;;;;;2602535;54;20049;31
2022/03/07 07:45:38;;;;;;;;;;;6.90;99.90;;;;;;2603030;54;20053;31
2022/03/07 07:48:14;;;;;;;15.90;7.53;;;7.10;99.90;;;;;;2621052;46;19942;31
2022/03/07 07:50:54;;;;;;;15.47;8.73;;;7.40;99.90;;;;;;2602763;54;20939;31
2022/03/07 07:56:05;;;;;;;15.10;8.75;;;7.90;99.90;;;;;;2602422;54;20057;31
2022/03/07 07:58:45;;;;;;;24.30;11.45;;;8.00;99.90;;;;;;2601853;54;20888;31
2022/03/07 08:01:21;;;;;;;13.43;8.05;;;8.40;99.90;;;;;;2602337;54;20109;31
2022/03/07 08:03:56;;;;;;;26.73;10.83;;;8.70;99.90;;;;;;2602678;54;20077;31
2022/03/07 08:06:35;;;;;;;15.18;9.05;;;8.60;99.90;;;;;;2602634;54;20246;31
2022/03/07 08:09:10;;;;;;;17.67;9.20;;;8.70;99.90;;;;;;2602515;54;20032;31
2022/03/07 08:11:46;;;;;;;15.23;9.40;;;8.90;99.90;;;;;;2602328;54;20034;31
2022/03/07 08:14:25;;;;;;;15.10;9.00;;;8.70;99.90;;;;;;2602384;54;20751;31
2022/03/07 08:17:03;;;;;;;14.23;9.13;;;8.70;99.90;;;;;;2601586;54;20898;31
2022/03/07 08:19:37;;;;;;;;;;;9.00;99.90;;;;;;2601943;54;21075;31
2022/03/07 08:22:12;;;;;;;15.95;9.40;;;9.00;99.90;;;;;;2601815;54;20752;31
2022/03/07 08:24:49;;;;;;;15.60;9.45;;;8.60;99.90;;;;;;2601678;54;20066;31
2022/03/07 08:27:24;;;;;;;15.43;9.80;;;8.20;99.90;;;;;;2601493;54;20041;31
2022/03/07 08:30:02;;;;;;;17.15;8.75;;;7.80;99.90;;;;;;2621204;47;20863;31
2022/03/07 08:32:40;;;;;;;12.57;8.43;;;7.80;99.90;;;;;;2601556;54;21105;31
2022/03/07 08:35:15;;;;;;;12.32;7.68;;;8.20;99.90;;;;;;2602659;54;22603;31
2022/03/07 08:37:53;;;;;;;14.57;7.93;;;8.70;99.90;;;;;;2601803;54;20034;31
2022/03/07 08:40:28;;;;;;;13.07;8.30;;;9.00;99.90;;;;;;2601555;54;20034;31
2022/03/07 08:43:05;;;;;;;18.05;8.75;;;9.30;99.90;;;;;;2602556;54;19934;31
2022/03/07 08:45:44;;;;;;;12.45;7.53;;;9.40;99.90;;;;;;2602473;54;20898;31
2022/03/07 08:48:30;;;;;;;13.17;7.80;;;9.20;99.90;;;;;;2602278;54;20103;31
2022/03/07 08:51:07;;;;;;;12.65;7.50;;;8.90;99.90;;;;;;2719025;39;21817;31
2022/03/07 08:53:42;;;;;;;12.82;8.45;;;8.80;99.90;;;;;;2601919;54;20027;31
2022/03/07 08:56:19;;;;;;;17.65;9.77;;;8.50;99.90;;;;;;2602233;54;20054;31
2022/03/07 08:59:02;;;;;;;10.70;8.10;;;8.70;99.90;;;;;;2602367;54;20884;31
2022/03/07 09:01:40;;;;;;;13.15;8.32;;;8.30;99.90;;;;;;2613996;47;20900;31
2022/03/07 09:04:15;;;;;;;11.80;8.53;;;8.10;99.90;;;;;;2601415;54;20030;31
2022/03/07 09:06:51;;;;;;;14.00;8.75;;;8.10;99.90;;;;;;2602385;54;20046;31
2022/03/07 09:09:29;;;;;;;15.25;9.10;;;7.80;99.90;;;;;;2601412;54;20314;31
2022/03/07 09:12:10;;;;;;;13.87;9.17;;;7.80;99.90;;;;;;2612104;47;20883;31
2022/03/07 09:14:45;;;;;;;16.15;9.73;;;7.80;99.90;;;;;;2602123;54;20244;31
2022/03/07 09:17:25;;;;;;;15.30;9.23;;;8.00;99.90;;;;;;2603067;54;20026;31
2022/03/07 09:20:02;;;;;;;16.77;10.70;;;8.20;99.90;;;;;;2603140;54;20235;31
2022/03/07 09:22:40;;;;;;;15.63;10.30;;;8.40;99.90;;;;;;2602945;54;20030;31
2022/03/07 09:25:16;;;;;;;13.75;9.68;;;8.70;99.90;;;;;;2603205;54;20927;31
2022/03/07 09:27:51;;;;;;;15.73;9.20;;;8.90;99.90;;;;;;2700766;39;20572;31
2022/03/07 09:30:27;;;;;;;14.65;9.23;;;9.30;99.90;;;;;;2603164;54;21012;31
2022/03/07 09:33:10;;;;;;;16.38;9.20;;;9.40;99.90;;;;;;2602940;54;20097;31
2022/03/07 09:35:48;;;;;;;10.65;8.23;;;9.50;99.90;;;;;;2603137;54;20794;31
2022/03/07 09:38:24;;;;;;;13.70;9.75;;;9.70;99.90;;;;;;2621681;46;20784;31
2022/03/07 09:41:01;;;;;;;;;;;9.70;99.90;;;;;;2603043;54;20797;31
2022/03/07 09:43:39;;;;;;;16.15;9.45;;;9.80;99.90;;;;;;2602661;54;19938;31
2022/03/07 09:46:14;;;;;;;29.60;10.52;;;9.80;99.90;;;;;;2602914;54;20052;31
2022/03/07 09:48:55;;;;;;;15.35;8.55;;;10.00;99.90;;;;;;2602858;54;20034;31
2022/03/07 09:51:32;;;;;;;12.95;8.20;;;10.00;99.90;;;;;;2621745;46;20028;31
2022/03/07 09:54:10;;;;;;;13.77;7.65;;;10.00;99.90;;;;;;2621191;46;20050;31
2022/03/07 09:56:45;;;;;;;13.43;9.00;;;10.10;99.90;;;;;;2701327;39;21561;31
2022/03/07 09:59:23;;;;;;;11.98;8.50;;;10.20;99.90;;;;;;2603126;54;20785;31
2022/03/07 10:02:02;;;;;;;14.45;6.45;;;10.30;99.90;;;;;;2602889;54;20034;31
2022/03/07 10:04:45;;;;;;;12.15;7.55;;;10.40;99.90;;;;;;2602024;54;20027;31
2022/03/07 10:07:21;;;;;;;10.82;7.40;;;10.40;99.90;;;;;;2603143;54;20884;31
2022/03/07 10:10:07;;;;;;;12.43;7.22;;;10.40;99.90;;;;;;2621523;46;20596;31
2022/03/07 10:12:49;;;;;;;15.20;7.95;;;10.40;99.90;;;;;;2621414;46;20030;31
2022/03/07 10:15:27;;;;;;;11.35;7.57;;;10.40;99.90;;;;;;2603045;54;20054;31
2022/03/07 10:18:03;;;;;;;9.70;5.95;;;10.50;99.90;;;;;;2602929;54;20858;31
2022/03/07 10:20:40;;;;;;;;;;;10.50;99.90;;;;;;2602910;54;20758;31
2022/03/07 10:23:19;;;;;;;16.23;7.45;;;10.70;99.90;;;;;;2602743;54;19934;31
2022/03/07 10:25:55;;;;;;;15.65;6.57;;;10.90;99.90;;;;;;2602684;54;20901;31
2022/03/07 10:28:36;;;;;;;11.93;6.93;;;11.00;99.90;;;;;;2602705;54;20034;31
2022/03/07 10:31:18;;;;;;;10.40;6.30;;;10.70;99.90;;;;;;2602977;54;21311;31
2022/03/07 10:34:04;;;;;;;10.13;7.07;;;10.50;99.90;;;;;;2602664;54;20034;31
2022/03/07 10:36:38;;;;;;;10.67;7.07;;;10.20;99.90;;;;;;2620983;46;21036;31
2022/03/07 10:39:17;;;;;;;12.13;6.47;;;9.80;99.90;;;;;;2602634;54;20121;31
2022/03/07 10:41:55;;;;;;;8.73;5.67;;;9.50;99.90;;;;;;2602635;54;20096;31
2022/03/07 10:44:31;;;;;;;10.70;6.20;;;9.10;99.90;;;;;;2602918;54;20889;31
2022/03/07 10:47:16;;;;;;;10.23;6.30;;;8.80;99.90;;;;;;2720122;39;21500;31
2022/03/07 10:49:55;;;;;;;7.78;5.70;;;8.70;99.90;;;;;;2602561;54;20144;31
2022/03/07 10:52:38;;;;;;;15.00;7.93;;;8.40;99.90;;;;;;2602633;54;20901;31
2022/03/07 10:55:25;;;;;;;9.82;6.70;;;8.30;99.90;;;;;;2602821;54;20800;31
2022/03/07 10:58:11;;;;;;;10.10;6.30;;;8.40;99.90;;;;;;2602889;54;20859;31
2022/03/07 11:03:22;;;;;;;10.25;6.65;;;9.00;99.90;;;;;;2602715;54;20038;31
2022/03/07 11:05:57;;;;;;;10.55;6.82;;;9.10;99.90;;;;;;2602593;54;20030;31
2022/03/07 11:08:35;;;;;;;10.75;7.18;;;9.20;99.90;;;;;;2601901;54;20031;31
2022/03/07 11:11:13;;;;;;;15.02;7.43;;;9.10;99.90;;;;;;2701291;39;22281;31
2022/03/07 11:13:49;;;;;;;10.18;6.43;;;9.00;99.90;;;;;;2621290;46;20036;31
2022/03/07 11:16:25;;;;;;;13.07;6.30;;;9.00;99.90;;;;;;2621108;46;20031;31
2022/03/07 11:19:04;;;;;;;15.02;6.90;;;8.90;99.90;;;;;;2602654;54;20137;31
2022/03/07 11:21:41;;;;;;;9.55;6.40;;;8.60;99.90;;;;;;2602576;54;20845;31
2022/03/07 11:24:19;;;;;;;10.27;7.00;;;8.40;99.90;;;;;;2602645;54;20212;31
2022/03/07 11:26:58;;;;;;;8.50;6.90;;;8.30;99.90;;;;;;2701166;39;20552;31
2022/03/07 11:29:40;;;;;;;10.43;7.35;;;8.10;99.90;;;;;;2602637;54;20868;31
2022/03/07 11:32:18;;;;;;;7.47;5.35;;;8.20;99.90;;;;;;2621207;46;20033;31
2022/03/07 11:37:40;;;;;;;13.15;7.30;;;8.00;99.90;;;;;;2620978;46;20891;31
2022/03/07 11:40:22;;;;;;;11.10;6.28;;;7.90;99.90;;;;;;2601830;54;20037;31
2022/03/07 11:43:10;;;;;;;113.18;11.43;;;8.00;99.90;;;;;;2602710;54;20877;31
2022/03/07 11:45:46;;;;;;;10.27;5.95;;;8.00;99.90;;;;;;2602797;54;20867;31
2022/03/07 11:48:22;;;;;;;9.18;5.30;;;7.90;99.90;;;;;;2620833;46;20048;31
2022/03/07 11:50:57;;;;;;;10.30;5.50;;;7.60;99.90;;;;;;2602711;54;20029;31
2022/03/07 11:53:35;;;;;;;8.20;4.17;;;7.60;99.90;;;;;;2620626;46;20019;31
2022/03/07 11:56:17;;;;;;;5.80;4.32;;;7.50;99.90;;;;;;2619712;46;20037;31
2022/03/07 11:58:59;;;;;;;9.00;4.13;;;7.50;99.90;;;;;;2602787;54;20026;31
2022/03/07 12:01:35;;;;;;;10.98;5.70;;;7.40;99.90;;;;;;2602531;54;20038;31
2022/03/07 12:04:14;;;;;;;12.47;6.40;;;7.40;99.90;;;;;;2602679;54;20034;31
2022/03/07 12:06:50;;;;;;;11.25;6.90;;;7.30;99.90;;;;;;2608148;46;21238;31
2022/03/07 12:09:32;;;;;;;9.90;6.75;;;7.40;99.90;;;;;;2601728;54;20106;31
2022/03/07 12:12:10;;;;;;;15.65;7.45;;;7.40;99.90;;;;;;2602365;54;20858;31
2022/03/07 12:14:52;;;;;;;12.95;7.70;;;7.50;99.90;;;;;;2602675;54;20861;31
2022/03/07 12:17:26;;;;;;;12.75;6.00;;;7.30;99.90;;;;;;2701219;39;21062;31
2022/03/07 12:20:09;;;;;;;13.55;7.25;;;7.10;99.90;;;;;;2620947;47;20033;31
2022/03/07 12:22:45;;;;;;;12.75;7.85;;;7.10;99.90;;;;;;2602426;54;20050;31
2022/03/07 12:25:22;;;;;;;11.00;7.05;;;7.00;99.90;;;;;;2602403;54;20023;31
2022/03/07 12:28:03;;;;;;;12.77;6.57;;;7.00;99.90;;;;;;2602453;54;20246;31
2022/03/07 12:30:41;;;;;;;11.15;6.00;;;6.90;99.90;;;;;;2620780;47;20082;31
2022/03/07 12:33:16;;;;;;;22.73;5.77;;;6.90;99.90;;;;;;2602423;54;20856;31
2022/03/07 12:36:01;;;;;;;14.18;7.75;;;6.80;99.90;;;;;;2602487;54;21002;31
2022/03/07 12:38:39;;;;;;;13.40;7.00;;;6.70;99.90;;;;;;2620982;47;20848;31
2022/03/07 12:41:15;;;;;;;21.75;8.85;;;6.70;99.90;;;;;;2602535;54;20054;31
2022/03/07 12:43:54;;;;;;;;;;;6.70;99.90;;;;;;2601924;54;20030;31
2022/03/07 12:46:33;;;;;;;15.85;7.38;;;6.70;99.90;;;;;;2621135;47;19991;31
2022/03/07 12:49:08;;;;;;;15.55;8.82;;;6.70;99.90;;;;;;2622066;46;20893;31
2022/03/07 12:51:43;;;;;;;19.40;10.77;;;6.70;99.90;;;;;;2603381;54;20787;31
2022/03/07 12:54:29;;;;;;;18.85;11.40;;;6.70;99.90;;;;;;2603428;54;20260;31
2022/03/07 12:57:05;;;;;;;17.17;9.40;;;6.70;99.90;;;;;;2603326;54;20862;31
2022/03/07 12:59:40;;;;;;;;;;;6.60;99.90;;;;;;2603469;54;20026;31
2022/03/07 13:02:22;;;;;;;19.00;11.07;;;6.70;99.90;;;;;;2621077;46;20850;31
2022/03/07 13:04:58;;;;;;;22.65;10.90;;;6.60;99.90;;;;;;2621441;46;20089;31
2022/03/07 13:07:33;;;;;;;20.80;10.60;;;6.50;99.90;;;;;;2603084;54;20023;31
2022/03/07 13:10:11;;;;;;;20.77;11.63;;;6.50;99.90;;;;;;2602558;54;20746;31
2022/03/07 13:12:47;;;;;;;24.30;12.75;;;6.50;99.90;;;;;;2603253;54;20077;31
2022/03/07 13:15:24;;;;;;;19.60;10.30;;;6.50;99.90;;;;;;2621766;46;20026;31
2022/03/07 13:18:09;;;;;;;22.75;11.55;;;6.50;99.90;;;;;;2603088;54;20243;31
2022/03/07 13:20:47;;;;;;;24.88;13.73;;;6.50;99.90;;;;;;2603025;54;20130;31
2022/03/07 13:23:27;;;;;;;19.60;10.70;;;6.50;99.90;;;;;;2602992;54;20049;31
2022/03/07 13:26:01;;;;;;;24.13;14.05;;;6.60;99.90;;;;;;2603268;54;20031;31
2022/03/07 13:28:40;;;;;;;22.67;12.27;;;6.70;99.90;;;;;;2603089;54;20060;31
2022/03/07 13:31:18;;;;;;;29.05;15.10;;;6.70;99.90;;;;;;2603135;54;20879;31
2022/03/07 13:34:02;;;;;;;40.10;16.40;;;6.80;99.90;;;;;;2603337;54;20904;31
2022/03/07 13:36:42;;;;;;;26.30;14.20;;;6.80;99.90;;;;;;2603019;54;20266;31
2022/03/07 13:39:29;;;;;;;30.17;15.00;;;6.80;99.90;;;;;;2709115;39;21130;31
2022/03/07 13:42:06;;;;;;;23.57;12.80;;;6.90;99.90;;;;;;2602768;54;20044;31
2022/03/07 13:44:51;;;;;;;25.15;14.25;;;6.90;99.90;;;;;;2621420;46;20244;31
2022/03/07 13:47:30;;;;;;;26.03;14.77;;;6.90;99.90;;;;;;2603070;54;20033;31
2022/03/07 13:50:09;;;;;;;25.80;14.40;;;6.90;99.90;;;;;;2603170;54;20030;31
2022/03/07 13:52:48;;;;;;;25.67;13.57;;;6.90;99.90;;;;;;2602129;54;20945;31
2022/03/07 13:55:26;;;;;;;24.05;13.30;;;6.80;99.90;;;;;;2602369;54;20250;31
2022/03/07 13:58:03;;;;;;;27.23;14.00;;;6.80;99.90;;;;;;2621777;46;20034;31
2022/03/07 14:03:10;;;;;;;28.00;13.40;;;6.50;99.90;;;;;;2602983;54;21238;31